Adak

About
Name: Adak
Identifier:  ADK/PADK
Local Time:  18. Aug 04:09 HDT
Location
Adak Island
  United States

Flights per Day
0 flights
Distance: 1,915km (1,189mi)
Punctuality
75% (0 flights per day delayed)
Delay Average: 13 minutes
Current Weather
 12 C (Humidity: 81%)
  7kt (12km/h / 8mph) from 50°
  Overcast at 1,900 feet (579 meter)
  16km (10 mi.)
 METAR PADK 181256Z AUTO 05007KT 10SM OVC019 12/09 A3012 RMK AO2 SLP199 T01220094

Current Flights

Departures
Number Departure To Airline
Arrivals
Number Arrival From Airline

Current Delays

Departures
N/A
Arrivals
N/A

Destinations

Top Destinations
Airport Flights
per week
Seats
per week
  Anchorage (ANC) 4 615 0 87

Airlines & Planes

Top Airlines
Airline Flights
per Day
Seats
per Day
  Alaska Airlines 0 87
Top Plane Types
Model Flights Seats
Boeing B737-700 0.6/day 66/day 66.13333333333334
Boeing B737-800 0.1/day 21/day 21.733333333333334